Claire — 6YRX3 — position and weather

sailwx.info

Track history (hours):
 
Tides and Currents Weather Stations Pressure Air Temp Water Temp Dewpoint Dewpoint Depression Visibility Wind Speed Wind Dir Waves Ship Positions

Claire

Last reported at 2017-Nov-12 23:05 UTC. Time now 2017-Nov-19 08:48 UTC.
Position N 26°21' W 080°05'.

Length 45 m; draft 2.3 m.

Type: Pleasure craft. MMSI: 339371000.

Date/timePositionNaut miles runAvg speedWind from/ knotsBaromVisibWave heightAir tempDewpointWater temp
2017-Nov-12 23:05N 26°21' W 080°05'0 0.2
2017-Nov-12 23:00N 26°21' W 080°05'2 4.0
2017-Nov-12 22:30N 26°19' W 080°05'3 5.2
2017-Nov-12 21:58N 26°16' W 080°05'2 4.6
2017-Nov-12 21:30N 26°14' W 080°06'3 5.4
2017-Nov-12 21:01N 26°11' W 080°06'3 5.9
2017-Nov-12 20:30N 26°08' W 080°07'3 5.1
2017-Nov-12 20:00N 26°06' W 080°07'5 9.4
2017-Nov-12 19:30N 26°01' W 080°05'714.8
2017-Nov-12 19:00N 25°54' W 080°05'714.2
2017-Nov-12 18:30N 25°47' W 080°05'5 9.2
2017-Nov-12 18:00N 25°46' W 080°10'1 2.2
2017-Nov-12 17:30N 25°47' W 080°11'0 0.0
2017-Nov-12 16:56N 25°47' W 080°11'0 0.0
2017-Nov-12 16:29N 25°47' W 080°11'0 0.0
2017-Nov-12 15:55N 25°47' W 080°11'0 0.0
2017-Nov-12 15:28N 25°47' W 080°11'0 0.0
2017-Nov-12 14:55N 25°47' W 080°11'0 0.0
2017-Nov-12 14:28N 25°47' W 080°11'0 0.0
2017-Nov-12 13:58N 25°47' W 080°11'0 0.0
2017-Nov-12 13:25N 25°47' W 080°11'0 0.0
2017-Nov-12 12:55N 25°47' W 080°11'0 0.0
2017-Nov-12 12:25N 25°47' W 080°11'0 0.0
2017-Nov-12 11:58N 25°47' W 080°11'0 0.0
2017-Nov-12 11:19N 25°47' W 080°11'0 0.0
2017-Nov-12 10:58N 25°47' W 080°11'0 0.0
2017-Nov-12 10:28N 25°47' W 080°11'0 0.0
2017-Nov-12 09:55N 25°47' W 080°11'0 0.0
2017-Nov-12 09:28N 25°47' W 080°11'0 0.0
2017-Nov-12 08:49N 25°47' W 080°11'0 0.0
2017-Nov-12 08:28N 25°47' W 080°11'0 0.0
2017-Nov-12 07:58N 25°47' W 080°11'0 0.0
2017-Nov-12 07:28N 25°47' W 080°11'0 0.0
2017-Nov-12 06:55N 25°47' W 080°11'0 0.0
2017-Nov-12 06:25N 25°47' W 080°11'0 0.0
2017-Nov-12 05:58N 25°47' W 080°11'0 0.0
2017-Nov-12 05:25N 25°47' W 080°11'0 0.0
2017-Nov-12 04:58N 25°47' W 080°11'0 0.0
2017-Nov-12 04:25N 25°47' W 080°11'0 0.0
2017-Nov-12 03:52N 25°47' W 080°11'0 0.0
2017-Nov-12 03:28N 25°47' W 080°11'0 0.0
2017-Nov-12 02:58N 25°47' W 080°11'0 0.0
2017-Nov-12 02:28N 25°47' W 080°11'0 0.0
2017-Nov-12 01:55N 25°47' W 080°11'0 0.0
2017-Nov-12 01:28N 25°47' W 080°11'0 0.0
2017-Nov-12 00:58N 25°47' W 080°11'0 0.0
2017-Nov-12 00:28N 25°47' W 080°11'0 0.0
2017-Nov-11 23:58N 25°47' W 080°11'0 0.0
2017-Nov-11 23:31N 25°47' W 080°11'2 4.3
2017-Nov-11 23:01N 25°46' W 080°09'0 1.0
2017-Nov-11 22:31N 25°45' W 080°09'0 0.0
2017-Nov-11 22:00N 25°45' W 080°09'1 1.1
2017-Nov-11 21:31N 25°46' W 080°09'5 9.0
2017-Nov-11 21:00N 25°42' W 080°06'713.8
2017-Nov-11 20:30N 25°35' W 080°08'4 0.1
2017-Nov-09 20:19N 25°31' W 080°09'413.2
2017-Nov-09 20:00N 25°35' W 080°08'714.0
2017-Nov-09 19:31N 25°42' W 080°06'714.9
2017-Nov-09 19:01N 25°49' W 080°05'815.2
2017-Nov-09 18:31N 25°57' W 080°05'714.6
2017-Nov-09 18:01N 26°04' W 080°05'3 6.0
2017-Nov-09 17:30N 26°07' W 080°07'2 4.0
2017-Nov-09 17:00N 26°08' W 080°06'3 5.9
2017-Nov-09 16:28N 26°12' W 080°06'3 5.6
2017-Nov-09 16:00N 26°14' W 080°06'2 3.8
2017-Nov-09 15:30N 26°16' W 080°05'3 6.1
2017-Nov-09 15:00N 26°19' W 080°05'2 3.2
2017-Nov-09 14:30N 26°21' W 080°05'0 0.0
2017-Nov-09 14:00N 26°21' W 080°05'0 0.0
2017-Nov-09 13:30N 26°21' W 080°05'0 0.0
2017-Nov-09 13:01N 26°21' W 080°05'0 0.0
2017-Nov-07 10:39N 26°21' W 080°05'0 0.0
2017-Nov-07 10:21N 26°21' W 080°05'0 0.0
2017-Nov-07 09:51N 26°21' W 080°05'0 0.0
2017-Nov-07 09:21N 26°21' W 080°05'0 0.0
2017-Nov-07 08:51N 26°21' W 080°05'0 0.0
2017-Nov-07 08:27N 26°21' W 080°05'0 0.0
2017-Nov-07 07:57N 26°21' W 080°05'0 0.0
2017-Nov-07 07:27N 26°21' W 080°05'0 0.0
2017-Nov-07 06:57N 26°21' W 080°05'0 0.0
2017-Nov-07 06:27N 26°21' W 080°05'0 0.0
2017-Nov-07 05:39N 26°21' W 080°05'0 0.0
2017-Nov-07 05:30N 26°21' W 080°05'0 0.0
2017-Nov-07 05:00N 26°21' W 080°05'0 0.0
2017-Nov-07 04:30N 26°21' W 080°05'0 0.0
2017-Nov-07 04:00N 26°21' W 080°05'0 0.0
2017-Nov-07 03:30N 26°21' W 080°05'0 0.0
2017-Nov-07 03:00N 26°21' W 080°05'0 0.0
2017-Nov-07 02:30N 26°21' W 080°05'0 0.0
2017-Nov-07 02:00N 26°21' W 080°05'0 0.0
2017-Nov-07 01:29N 26°21' W 080°05'0 0.0
2017-Nov-07 01:00N 26°21' W 080°05'0 0.0
2017-Nov-07 00:30N 26°21' W 080°05'  
2017-Nov-04 03:17N 26°21' W 080°05'0 0.0
2017-Nov-04 03:01N 26°21' W 080°05'2 3.6
2017-Nov-04 02:30N 26°19' W 080°05'0 0.4
2017-Nov-04 02:00N 26°19' W 080°05'2 3.1
2017-Nov-04 01:30N 26°21' W 080°05'0 0.0
2017-Nov-04 01:00N 26°21' W 080°05'0 0.0
2017-Nov-04 00:30N 26°21' W 080°05'0 0.0
2017-Nov-04 00:00N 26°21' W 080°05'0 0.0
2017-Nov-03 23:30N 26°21' W 080°05'0 0.0
2017-Nov-03 23:00N 26°21' W 080°05'  
Track history (hours):
 
Tides and Currents Weather Stations Pressure Air Temp Water Temp Dewpoint Dewpoint Depression Visibility Wind Speed Wind Dir Waves Ship Positions

Claire

Last reported at 2017-Nov-12 23:05 UTC. Time now 2017-Nov-19 08:48 UTC.
Position N 26°21' W 080°05'.

Length 45 m; draft 2.3 m.

Type: Pleasure craft. MMSI: 339371000.

Date/timePositionNaut miles runAvg speedWind from/ knotsBaromVisibWave heightAir tempDewpointWater temp
2017-Nov-12 23:05N 26°21' W 080°05'0 0.2
2017-Nov-12 23:00N 26°21' W 080°05'2 4.0
2017-Nov-12 22:30N 26°19' W 080°05'3 5.2
2017-Nov-12 21:58N 26°16' W 080°05'2 4.6
2017-Nov-12 21:30N 26°14' W 080°06'3 5.4
2017-Nov-12 21:01N 26°11' W 080°06'3 5.9
2017-Nov-12 20:30N 26°08' W 080°07'3 5.1
2017-Nov-12 20:00N 26°06' W 080°07'5 9.4
2017-Nov-12 19:30N 26°01' W 080°05'714.8
2017-Nov-12 19:00N 25°54' W 080°05'714.2
2017-Nov-12 18:30N 25°47' W 080°05'5 9.2
2017-Nov-12 18:00N 25°46' W 080°10'1 2.2
2017-Nov-12 17:30N 25°47' W 080°11'0 0.0
2017-Nov-12 16:56N 25°47' W 080°11'0 0.0
2017-Nov-12 16:29N 25°47' W 080°11'0 0.0
2017-Nov-12 15:55N 25°47' W 080°11'0 0.0
2017-Nov-12 15:28N 25°47' W 080°11'0 0.0
2017-Nov-12 14:55N 25°47' W 080°11'0 0.0
2017-Nov-12 14:28N 25°47' W 080°11'0 0.0
2017-Nov-12 13:58N 25°47' W 080°11'0 0.0
2017-Nov-12 13:25N 25°47' W 080°11'0 0.0
2017-Nov-12 12:55N 25°47' W 080°11'0 0.0
2017-Nov-12 12:25N 25°47' W 080°11'0 0.0
2017-Nov-12 11:58N 25°47' W 080°11'0 0.0
2017-Nov-12 11:19N 25°47' W 080°11'0 0.0
2017-Nov-12 10:58N 25°47' W 080°11'0 0.0
2017-Nov-12 10:28N 25°47' W 080°11'0 0.0
2017-Nov-12 09:55N 25°47' W 080°11'0 0.0
2017-Nov-12 09:28N 25°47' W 080°11'0 0.0
2017-Nov-12 08:49N 25°47' W 080°11'0 0.0
2017-Nov-12 08:28N 25°47' W 080°11'0 0.0
2017-Nov-12 07:58N 25°47' W 080°11'0 0.0
2017-Nov-12 07:28N 25°47' W 080°11'0 0.0
2017-Nov-12 06:55N 25°47' W 080°11'0 0.0
2017-Nov-12 06:25N 25°47' W 080°11'0 0.0
2017-Nov-12 05:58N 25°47' W 080°11'0 0.0
2017-Nov-12 05:25N 25°47' W 080°11'0 0.0
2017-Nov-12 04:58N 25°47' W 080°11'0 0.0
2017-Nov-12 04:25N 25°47' W 080°11'0 0.0
2017-Nov-12 03:52N 25°47' W 080°11'0 0.0
2017-Nov-12 03:28N 25°47' W 080°11'0 0.0
2017-Nov-12 02:58N 25°47' W 080°11'0 0.0
2017-Nov-12 02:28N 25°47' W 080°11'0 0.0
2017-Nov-12 01:55N 25°47' W 080°11'0 0.0
2017-Nov-12 01:28N 25°47' W 080°11'0 0.0
2017-Nov-12 00:58N 25°47' W 080°11'0 0.0
2017-Nov-12 00:28N 25°47' W 080°11'0 0.0
2017-Nov-11 23:58N 25°47' W 080°11'0 0.0
2017-Nov-11 23:31N 25°47' W 080°11'2 4.3
2017-Nov-11 23:01N 25°46' W 080°09'0 1.0
2017-Nov-11 22:31N 25°45' W 080°09'0 0.0
2017-Nov-11 22:00N 25°45' W 080°09'1 1.1
2017-Nov-11 21:31N 25°46' W 080°09'5 9.0
2017-Nov-11 21:00N 25°42' W 080°06'713.8
2017-Nov-11 20:30N 25°35' W 080°08'4 0.1
2017-Nov-09 20:19N 25°31' W 080°09'413.2
2017-Nov-09 20:00N 25°35' W 080°08'714.0
2017-Nov-09 19:31N 25°42' W 080°06'714.9
2017-Nov-09 19:01N 25°49' W 080°05'815.2
2017-Nov-09 18:31N 25°57' W 080°05'714.6
2017-Nov-09 18:01N 26°04' W 080°05'3 6.0
2017-Nov-09 17:30N 26°07' W 080°07'2 4.0
2017-Nov-09 17:00N 26°08' W 080°06'3 5.9
2017-Nov-09 16:28N 26°12' W 080°06'3 5.6
2017-Nov-09 16:00N 26°14' W 080°06'2 3.8
2017-Nov-09 15:30N 26°16' W 080°05'3 6.1
2017-Nov-09 15:00N 26°19' W 080°05'2 3.2
2017-Nov-09 14:30N 26°21' W 080°05'0 0.0
2017-Nov-09 14:00N 26°21' W 080°05'0 0.0
2017-Nov-09 13:30N 26°21' W 080°05'0 0.0
2017-Nov-09 13:01N 26°21' W 080°05'0 0.0
2017-Nov-07 10:39N 26°21' W 080°05'0 0.0
2017-Nov-07 10:21N 26°21' W 080°05'0 0.0
2017-Nov-07 09:51N 26°21' W 080°05'0 0.0
2017-Nov-07 09:21N 26°21' W 080°05'0 0.0
2017-Nov-07 08:51N 26°21' W 080°05'0 0.0
2017-Nov-07 08:27N 26°21' W 080°05'0 0.0
2017-Nov-07 07:57N 26°21' W 080°05'0 0.0
2017-Nov-07 07:27N 26°21' W 080°05'0 0.0
2017-Nov-07 06:57N 26°21' W 080°05'0 0.0
2017-Nov-07 06:27N 26°21' W 080°05'0 0.0
2017-Nov-07 05:39N 26°21' W 080°05'0 0.0
2017-Nov-07 05:30N 26°21' W 080°05'0 0.0
2017-Nov-07 05:00N 26°21' W 080°05'0 0.0
2017-Nov-07 04:30N 26°21' W 080°05'0 0.0
2017-Nov-07 04:00N 26°21' W 080°05'0 0.0
2017-Nov-07 03:30N 26°21' W 080°05'0 0.0
2017-Nov-07 03:00N 26°21' W 080°05'0 0.0
2017-Nov-07 02:30N 26°21' W 080°05'0 0.0
2017-Nov-07 02:00N 26°21' W 080°05'0 0.0
2017-Nov-07 01:29N 26°21' W 080°05'0 0.0
2017-Nov-07 01:00N 26°21' W 080°05'0 0.0
2017-Nov-07 00:30N 26°21' W 080°05'  
2017-Nov-04 03:17N 26°21' W 080°05'0 0.0
2017-Nov-04 03:01N 26°21' W 080°05'2 3.6
2017-Nov-04 02:30N 26°19' W 080°05'0 0.4
2017-Nov-04 02:00N 26°19' W 080°05'2 3.1
2017-Nov-04 01:30N 26°21' W 080°05'0 0.0
2017-Nov-04 01:00N 26°21' W 080°05'0 0.0
2017-Nov-04 00:30N 26°21' W 080°05'0 0.0
2017-Nov-04 00:00N 26°21' W 080°05'0 0.0
2017-Nov-03 23:30N 26°21' W 080°05'0 0.0
2017-Nov-03 23:00N 26°21' W 080°05'  

Dump ship's entire track history